Time;durP1;ratioP1;P1;durP2;ratioP2;P2;SDS_P1;SDS_P2;PMS_P1;PMS_P2;Temp;Humidity;BMP_temperature;BMP_pressure;BME280_temperature;BME280_humidity;BME280_pressure;Samples;Min_cycle;Max_cycle;Signal;HPM_P1;HPM_P2
2022/09/29 00:00:13;;;;;;;13.82;10.20;;;7.00;99.90;;;;;;6257607;23;20233;-89
2022/09/29 00:02:41;;;;;;;9.80;8.55;;;7.00;99.90;;;;;;6256994;23;20175;-88
2022/09/29 00:05:09;;;;;;;11.15;10.05;;;7.10;99.90;;;;;;6259344;23;20181;-89
2022/09/29 00:07:38;;;;;;;15.20;10.63;;;7.00;99.90;;;;;;6255868;23;20179;-89
2022/09/29 00:10:06;;;;;;;10.60;9.60;;;6.90;99.90;;;;;;6257082;23;20226;-88
2022/09/29 00:12:33;;;;;;;13.90;11.10;;;6.90;99.90;;;;;;6260219;22;20244;-89
2022/09/29 00:15:00;;;;;;;13.70;10.02;;;6.90;99.90;;;;;;6260298;23;20526;-90
2022/09/29 00:17:29;;;;;;;11.55;10.35;;;7.00;99.90;;;;;;6232527;23;20186;-89
2022/09/29 00:19:57;;;;;;;12.38;10.88;;;6.90;99.90;;;;;;6260075;23;20187;-89
2022/09/29 00:22:26;;;;;;;12.85;11.30;;;6.90;99.90;;;;;;6264335;22;20417;-89
2022/09/29 00:24:53;;;;;;;11.20;9.82;;;6.90;99.90;;;;;;6271183;22;20199;-88
2022/09/29 00:27:20;;;;;;;16.38;11.35;;;6.90;99.90;;;;;;6273043;22;20219;-89
2022/09/29 00:29:48;;;;;;;18.85;11.98;;;7.00;99.90;;;;;;6271173;22;20262;-87
2022/09/29 00:32:15;;;;;;;17.58;12.55;;;7.00;99.90;;;;;;6268072;22;20274;-88
2022/09/29 00:34:42;;;;;;;14.77;11.75;;;7.00;99.90;;;;;;6238718;23;20192;-86
2022/09/29 00:37:10;;;;;;;16.15;12.70;;;7.10;99.90;;;;;;6269520;22;20177;-88
2022/09/29 00:39:45;;;;;;;18.02;11.15;;;7.10;99.90;;;;;;6269929;22;20226;-88
2022/09/29 00:42:18;;;;;;;13.35;12.02;;;7.10;99.90;;;;;;6263614;22;20183;-88
2022/09/29 00:44:51;;;;;;;14.20;12.35;;;7.10;99.90;;;;;;6259625;22;20240;-88
2022/09/29 00:47:18;;;;;;;16.58;11.98;;;7.00;99.90;;;;;;6271859;23;20206;-87
2022/09/29 00:50:01;;;;;;;13.73;11.43;;;7.00;99.90;;;;;;6272771;22;20202;-88
2022/09/29 00:52:34;;;;;;;15.50;11.68;;;6.90;99.90;;;;;;6263816;23;20209;-88
2022/09/29 00:55:09;;;;;;;16.45;11.10;;;6.80;99.90;;;;;;6256295;23;20167;-88
2022/09/29 00:57:44;;;;;;;15.90;12.10;;;6.70;99.90;;;;;;6255402;23;20159;-89
2022/09/29 01:00:14;;;;;;;15.93;13.23;;;6.60;99.90;;;;;;6255607;23;20362;-90
2022/09/29 01:02:51;;;;;;;15.68;11.27;;;6.60;99.90;;;;;;6255379;23;20174;-88
2022/09/29 01:05:24;;;;;;;19.30;13.43;;;6.60;99.90;;;;;;6259466;23;20167;-88
2022/09/29 01:07:52;;;;;;;14.95;12.50;;;6.60;99.90;;;;;;6250834;23;20226;-86
2022/09/29 01:10:19;;;;;;;14.90;11.10;;;6.60;99.90;;;;;;6226280;23;20260;-87
2022/09/29 01:12:49;;;;;;;13.52;11.82;;;6.50;99.90;;;;;;6258749;23;20213;-88
2022/09/29 01:15:19;;;;;;;18.13;12.00;;;6.60;99.90;;;;;;6260076;23;20196;-88
2022/09/29 01:17:53;;;;;;;17.60;12.82;;;6.50;99.90;;;;;;6260189;23;20178;-89
2022/09/29 01:20:23;;;;;;;21.60;14.75;;;6.20;99.90;;;;;;6255122;23;20763;-89
2022/09/29 01:23:14;;;;;;;14.98;12.43;;;6.00;99.90;;;;;;6256359;23;20186;-89
2022/09/29 01:26:35;;;;;;;20.35;12.95;;;5.90;99.90;;;;;;6260497;23;20242;-89
2022/09/29 01:29:30;;;;;;;17.58;13.50;;;6.10;99.90;;;;;;6259124;23;20305;-88
2022/09/29 01:32:10;;;;;;;21.42;13.65;;;6.30;99.90;;;;;;6254841;23;20179;-88
2022/09/29 01:35:07;;;;;;;17.73;14.13;;;6.30;99.90;;;;;;6255855;23;20363;-87
2022/09/29 01:37:46;;;;;;;20.67;14.27;;;6.40;99.90;;;;;;6239344;23;20179;-88
2022/09/29 01:40:25;;;;;;;16.65;13.95;;;6.30;99.90;;;;;;6251589;23;20174;-88
2022/09/29 01:43:15;;;;;;;15.93;13.10;;;6.40;99.90;;;;;;6227167;23;20158;-88
2022/09/29 01:45:52;;;;;;;19.92;14.65;;;6.40;99.90;;;;;;6252843;23;20194;-87
2022/09/29 01:48:28;;;;;;;14.45;12.20;;;6.40;99.90;;;;;;6253439;23;20162;-87
2022/09/29 01:50:59;;;;;;;14.45;11.75;;;6.50;99.90;;;;;;6251082;22;20517;-86
2022/09/29 01:53:35;;;;;;;16.92;13.05;;;6.40;99.90;;;;;;6252457;23;20179;-87
2022/09/29 01:56:08;;;;;;;18.52;13.98;;;6.40;99.90;;;;;;6226127;23;20167;-86
2022/09/29 01:58:53;;;;;;;17.42;15.30;;;6.20;99.90;;;;;;6226173;23;20182;-86
2022/09/29 02:01:26;;;;;;;17.38;14.15;;;6.20;99.90;;;;;;6256977;22;20217;-86
2022/09/29 02:04:03;;;;;;;17.20;12.45;;;6.20;99.90;;;;;;6251972;23;20213;-88
2022/09/29 02:06:36;;;;;;;16.20;13.10;;;6.30;99.90;;;;;;6251599;23;20453;-87
2022/09/29 02:09:13;;;;;;;17.40;14.40;;;6.20;99.90;;;;;;6253127;23;20187;-87
2022/09/29 02:11:50;;;;;;;14.50;12.32;;;6.20;99.90;;;;;;6260109;22;20157;-88
2022/09/29 02:14:23;;;;;;;17.52;14.02;;;6.30;99.90;;;;;;6245240;23;20226;-88
2022/09/29 02:17:04;;;;;;;20.20;15.85;;;6.20;99.90;;;;;;6247272;23;20155;-87
2022/09/29 02:19:39;;;;;;;16.25;13.75;;;6.30;99.90;;;;;;6266508;22;20193;-87
2022/09/29 02:22:07;;;;;;;17.38;14.18;;;6.30;99.90;;;;;;6257602;23;20186;-88
2022/09/29 02:24:36;;;;;;;18.50;14.77;;;6.20;99.90;;;;;;6255018;23;20271;-88
2022/09/29 02:27:04;;;;;;;21.88;16.30;;;6.30;99.90;;;;;;6228280;23;20225;-88
2022/09/29 02:29:35;;;;;;;23.42;16.02;;;6.30;99.90;;;;;;6253823;23;20203;-87
2022/09/29 02:32:08;;;;;;;17.83;15.27;;;6.30;99.90;;;;;;6255058;23;20201;-86
2022/09/29 02:34:42;;;;;;;18.60;14.35;;;6.30;99.90;;;;;;6256658;23;20154;-88
2022/09/29 02:37:28;;;;;;;20.77;16.20;;;6.20;99.90;;;;;;6257110;23;20243;-87
2022/09/29 02:40:00;;;;;;;19.13;14.85;;;6.10;99.90;;;;;;6254151;23;20744;-87
2022/09/29 02:42:55;;;;;;;19.15;14.02;;;6.20;99.90;;;;;;6253483;23;20282;-89
2022/09/29 02:45:34;;;;;;;15.57;13.77;;;5.90;99.90;;;;;;6256682;23;20163;-89
2022/09/29 02:48:26;;;;;;;16.23;12.43;;;5.90;99.90;;;;;;6255607;23;20177;-88
2022/09/29 02:51:01;;;;;;;16.05;13.90;;;6.00;99.90;;;;;;6264639;22;20198;-87
2022/09/29 02:53:45;;;;;;;14.85;13.15;;;6.00;99.90;;;;;;6272960;22;20158;-88
2022/09/29 02:56:39;;;;;;;21.08;15.65;;;6.00;99.90;;;;;;6275165;22;20218;-87
2022/09/29 02:59:17;;;;;;;18.00;14.00;;;6.10;99.90;;;;;;6260923;23;20201;-87
2022/09/29 03:01:50;;;;;;;14.60;12.43;;;6.10;99.90;;;;;;6256579;23;20250;-87
2022/09/29 03:04:22;;;;;;;15.60;12.93;;;5.90;99.90;;;;;;6259126;23;20179;-88
2022/09/29 03:06:49;;;;;;;20.63;12.75;;;6.10;99.90;;;;;;6256058;23;20225;-88
2022/09/29 03:09:17;;;;;;;20.35;13.95;;;6.00;99.90;;;;;;6231236;23;20207;-88
2022/09/29 03:11:44;;;;;;;18.52;13.85;;;6.10;99.90;;;;;;6257943;23;20234;-88
2022/09/29 03:14:13;;;;;;;12.68;11.35;;;6.00;99.90;;;;;;6258530;23;20179;-88
2022/09/29 03:16:42;;;;;;;17.77;13.02;;;6.00;99.90;;;;;;6261185;23;20179;-87
2022/09/29 03:19:10;;;;;;;13.90;11.63;;;6.00;99.90;;;;;;6228227;23;20247;-86
2022/09/29 03:21:39;;;;;;;16.33;13.20;;;5.90;99.90;;;;;;6253682;23;20213;-87
2022/09/29 03:24:05;;;;;;;16.25;12.40;;;6.00;99.90;;;;;;6253798;23;20213;-87
2022/09/29 03:26:33;;;;;;;17.60;12.88;;;6.00;99.90;;;;;;6252840;23;20175;-88
2022/09/29 03:29:02;;;;;;;17.13;14.65;;;6.10;99.90;;;;;;6251663;23;20241;-87
2022/09/29 03:31:31;;;;;;;19.50;12.88;;;6.20;99.90;;;;;;6254367;23;20194;-89
2022/09/29 03:33:59;;;;;;;16.77;13.52;;;6.20;99.90;;;;;;6264091;23;20186;-87
2022/09/29 03:36:26;;;;;;;17.40;14.25;;;6.20;99.90;;;;;;6263716;23;20175;-89
2022/09/29 03:38:54;;;;;;;15.32;12.68;;;6.20;99.90;;;;;;6266205;22;20171;-89
2022/09/29 03:44:10;;;;;;;20.63;13.07;;;6.20;99.90;;;;;;6263601;22;20222;-89
2022/09/29 03:46:37;;;;;;;19.50;14.50;;;6.20;99.90;;;;;;6269208;22;20192;-88
2022/09/29 03:49:04;;;;;;;19.25;13.20;;;6.10;99.90;;;;;;6264251;22;20201;-88
2022/09/29 03:51:31;;;;;;;17.58;13.07;;;6.20;99.90;;;;;;6274956;22;20219;-88
2022/09/29 03:54:00;;;;;;;20.95;14.25;;;6.20;99.90;;;;;;6274261;22;20170;-88
2022/09/29 03:56:34;;;;;;;15.00;12.60;;;6.20;99.90;;;;;;6272357;22;20225;-89
2022/09/29 03:59:07;;;;;;;21.02;13.32;;;6.20;99.90;;;;;;6259577;23;20178;-88
2022/09/29 04:01:37;;;;;;;19.25;13.90;;;6.30;99.90;;;;;;6230221;23;20193;-85
2022/09/29 04:04:08;;;;;;;19.92;14.30;;;6.30;99.90;;;;;;6255035;23;20198;-86
2022/09/29 04:06:35;;;;;;;17.10;12.73;;;6.30;99.90;;;;;;6254989;23;20242;-86
2022/09/29 04:09:03;;;;;;;16.60;11.68;;;6.30;99.90;;;;;;6253009;23;20175;-87
2022/09/29 04:11:30;;;;;;;18.60;13.80;;;6.30;99.90;;;;;;6253669;23;20182;-86
2022/09/29 04:13:59;;;;;;;17.60;15.00;;;6.30;99.90;;;;;;6253756;23;20182;-85
2022/09/29 04:16:34;;;;;;;17.27;12.35;;;6.30;99.90;;;;;;6229103;23;20201;-84
2022/09/29 04:19:04;;;;;;;22.33;15.27;;;6.30;99.90;;;;;;6253879;23;20284;-86
2022/09/29 04:21:35;;;;;;;14.85;11.75;;;6.40;99.90;;;;;;6253455;23;20207;-86
2022/09/29 04:24:02;;;;;;;17.90;12.15;;;6.50;99.90;;;;;;6226967;23;20183;-86
2022/09/29 04:26:29;;;;;;;17.63;11.93;;;6.50;99.90;;;;;;6254201;23;20212;-86
2022/09/29 04:28:59;;;;;;;16.38;13.60;;;6.50;99.90;;;;;;6229854;23;20188;-84
2022/09/29 04:31:25;;;;;;;20.40;12.85;;;6.40;99.90;;;;;;6253451;23;20216;-87
2022/09/29 04:33:53;;;;;;;20.27;12.85;;;6.40;99.90;;;;;;6226848;23;20230;-86
2022/09/29 04:36:24;;;;;;;16.83;13.48;;;6.40;99.90;;;;;;6253791;23;20210;-86
2022/09/29 04:38:53;;;;;;;17.02;13.63;;;6.50;99.90;;;;;;6253618;23;20217;-86
2022/09/29 04:41:27;;;;;;;21.38;13.90;;;6.50;99.90;;;;;;6256181;23;20164;-84
2022/09/29 04:43:54;;;;;;;19.02;12.65;;;6.50;99.90;;;;;;6256124;23;20224;-84
2022/09/29 04:46:23;;;;;;;27.67;13.82;;;6.50;99.90;;;;;;6258988;23;20425;-85
2022/09/29 04:48:51;;;;;;;15.27;12.48;;;6.40;99.90;;;;;;6259597;22;20262;-87
2022/09/29 04:51:42;;;;;;;15.30;11.45;;;6.40;99.90;;;;;;6259101;23;20206;-87
2022/09/29 04:54:10;;;;;;;17.60;12.55;;;6.40;99.90;;;;;;6235356;23;20187;-89
2022/09/29 04:56:40;;;;;;;19.65;14.38;;;6.40;99.90;;;;;;6271727;22;20163;-88
2022/09/29 04:59:54;;;;;;;14.70;13.10;;;6.50;99.90;;;;;;6273622;22;20181;-87
2022/09/29 05:02:24;;;;;;;19.65;15.07;;;6.50;99.90;;;;;;6239347;23;20182;-87
2022/09/29 05:04:57;;;;;;;23.48;15.15;;;6.50;99.90;;;;;;6259964;23;20270;-87
2022/09/29 05:07:25;;;;;;;17.27;13.35;;;6.50;99.90;;;;;;6251758;23;20194;-86
2022/09/29 05:09:56;;;;;;;19.70;14.40;;;6.50;99.90;;;;;;6259585;23;20191;-87
2022/09/29 05:12:25;;;;;;;21.08;14.52;;;6.60;99.90;;;;;;6266988;23;20197;-87
2022/09/29 05:15:17;;;;;;;20.67;15.13;;;6.60;99.90;;;;;;6250070;22;20161;-88
2022/09/29 05:17:51;;;;;;;16.98;14.15;;;6.70;99.90;;;;;;6260564;23;20143;-87
2022/09/29 05:20:18;;;;;;;18.30;13.70;;;6.70;99.90;;;;;;6255770;23;20193;-87
2022/09/29 05:22:46;;;;;;;22.63;14.65;;;6.70;99.90;;;;;;6253795;23;20227;-87
2022/09/29 05:25:13;;;;;;;17.35;14.32;;;6.80;99.90;;;;;;6226150;23;20225;-86
2022/09/29 05:27:43;;;;;;;18.48;13.50;;;6.80;99.90;;;;;;6253615;23;20229;-85
2022/09/29 05:30:10;;;;;;;17.25;13.75;;;6.80;99.90;;;;;;6255687;23;20199;-86
2022/09/29 05:32:37;;;;;;;13.65;12.20;;;6.80;99.90;;;;;;6254830;23;20221;-87
2022/09/29 05:35:08;;;;;;;19.30;14.05;;;7.00;99.90;;;;;;6254995;23;20233;-86
2022/09/29 05:37:44;;;;;;;17.08;13.82;;;7.00;99.90;;;;;;6259013;23;20176;-83
2022/09/29 05:40:12;;;;;;;21.40;14.60;;;7.00;99.90;;;;;;6263970;23;20179;-84
2022/09/29 05:42:40;;;;;;;19.80;14.40;;;7.10;99.90;;;;;;6259448;23;20359;-86
2022/09/29 05:45:10;;;;;;;26.33;17.63;;;7.30;99.90;;;;;;6256777;23;20566;-87
2022/09/29 05:47:44;;;;;;;26.92;18.27;;;7.30;99.90;;;;;;6258492;23;20162;-87
2022/09/29 05:50:11;;;;;;;26.27;16.17;;;7.40;99.90;;;;;;6285455;22;20244;-88
2022/09/29 05:52:40;;;;;;;24.00;16.40;;;7.50;99.90;;;;;;6268523;22;20197;-87
2022/09/29 05:55:08;;;;;;;25.90;16.30;;;7.60;99.90;;;;;;6295504;22;20198;-86
2022/09/29 05:57:36;;;;;;;26.60;14.77;;;7.70;99.90;;;;;;6293286;22;20224;-87
2022/09/29 06:00:07;;;;;;;23.58;17.88;;;7.80;99.90;;;;;;6294929;22;20583;-88
2022/09/29 06:02:39;;;;;;;24.00;16.55;;;7.90;99.90;;;;;;6294775;22;20166;-87
2022/09/29 06:05:12;;;;;;;24.80;18.17;;;8.00;99.90;;;;;;6294962;22;20195;-86
2022/09/29 06:07:38;;;;;;;20.63;14.30;;;8.20;99.90;;;;;;6299167;22;20170;-86
2022/09/29 06:10:06;;;;;;;19.52;13.55;;;8.00;99.90;;;;;;6270894;22;20194;-87
2022/09/29 06:12:36;;;;;;;15.32;11.68;;;8.10;99.90;;;;;;6294378;22;20183;-89
2022/09/29 06:15:04;;;;;;;14.80;12.05;;;8.40;99.90;;;;;;6290671;22;20182;-87
2022/09/29 06:17:33;;;;;;;12.18;9.55;;;8.80;99.90;;;;;;6304363;22;20208;-85
2022/09/29 06:20:00;;;;;;;11.20;9.05;;;9.40;99.90;;;;;;6278108;22;20177;-85
2022/09/29 06:22:27;;;;;;;14.68;5.50;;;10.00;99.90;;;;;;6296988;22;20181;-88
2022/09/29 06:24:54;;;;;;;8.77;5.93;;;10.10;99.90;;;;;;6294687;22;20401;-86
2022/09/29 06:27:23;;;;;;;9.73;6.95;;;10.40;99.90;;;;;;6292912;22;20267;-85
2022/09/29 06:29:50;;;;;;;5.50;5.00;;;10.50;99.90;;;;;;6292320;22;20178;-86
2022/09/29 06:32:24;;;;;;;5.70;5.20;;;10.60;99.90;;;;;;6290134;22;20185;-85
2022/09/29 06:37:48;;;;;;;8.98;6.05;;;11.40;99.90;;;;;;6295136;22;20225;-85
2022/09/29 06:40:22;;;;;;;28.70;6.97;;;11.80;99.90;;;;;;6299366;22;20150;-85
2022/09/29 06:42:49;;;;;;;9.07;6.65;;;12.70;99.90;;;;;;6299473;22;20158;-86
2022/09/29 06:45:18;;;;;;;9.05;6.30;;;13.20;99.90;;;;;;6298593;22;20252;-85
2022/09/29 06:47:49;;;;;;;5.75;5.25;;;13.60;99.90;;;;;;6249115;22;20189;-83
2022/09/29 06:50:16;;;;;;;8.65;6.38;;;14.20;99.90;;;;;;6269377;22;20218;-84
2022/09/29 06:52:55;;;;;;;7.40;5.28;;;14.10;99.90;;;;;;6267590;23;20168;-86
2022/09/29 06:55:36;;;;;;;9.48;6.30;;;14.50;99.90;;;;;;6268202;23;20194;-84
2022/09/29 06:58:07;;;;;;;6.50;4.90;;;15.50;99.90;;;;;;6149168;23;20172;-86
2022/09/29 07:00:36;;;;;;;6.80;6.10;;;15.70;99.90;;;;;;6149406;23;20181;-86
2022/09/29 07:03:04;;;;;;;15.10;6.17;;;16.20;99.90;;;;;;6150075;23;20394;-87
2022/09/29 07:05:33;;;;;;;7.10;5.10;;;16.70;99.90;;;;;;6150481;23;20422;-85
2022/09/29 07:08:06;;;;;;;8.50;5.90;;;17.80;99.90;;;;;;6150563;23;20400;-84
2022/09/29 07:10:34;;;;;;;8.57;5.87;;;17.70;99.90;;;;;;6125247;23;20459;-87
2022/09/29 07:13:01;;;;;;;7.63;6.10;;;17.70;99.90;;;;;;6149938;23;20403;-88
2022/09/29 07:15:42;;;;;;;7.53;5.70;;;18.00;99.90;;;;;;6184554;22;20426;-82
2022/09/29 07:18:11;;;;;;;6.50;4.93;;;19.10;99.90;;;;;;6272571;22;20351;-85
2022/09/29 07:20:39;;;;;;;7.67;5.13;;;20.00;99.90;;;;;;6273638;22;20869;-85
2022/09/29 07:23:07;;;;;;;4.73;4.33;;;21.40;99.90;;;;;;6272529;22;20352;-85
2022/09/29 07:25:37;;;;;;;5.70;4.67;;;23.10;99.90;;;;;;6271284;22;20418;-85
2022/09/29 07:28:18;;;;;;;8.47;4.60;;;23.00;99.90;;;;;;6271929;22;20392;-85
2022/09/29 07:30:48;;;;;;;9.63;6.40;;;23.50;99.90;;;;;;6244803;22;20407;-86
2022/09/29 07:33:16;;;;;;;6.50;5.00;;;23.80;99.90;;;;;;6270391;22;20363;-86
2022/09/29 07:35:51;;;;;;;7.30;5.40;;;24.10;99.70;;;;;;6268988;22;20362;-87
2022/09/29 07:38:19;;;;;;;5.83;5.23;;;24.80;97.10;;;;;;6271274;22;20469;-86
2022/09/29 07:40:47;;;;;;;5.70;5.03;;;25.30;94.70;;;;;;6270526;22;20454;-84
2022/09/29 07:43:14;;;;;;;8.27;5.73;;;25.50;93.00;;;;;;6267982;22;20401;-85
2022/09/29 07:45:50;;;;;;;6.90;5.37;;;26.10;94.40;;;;;;6267982;22;20409;-84
2022/09/29 07:48:18;;;;;;;4.60;4.20;;;26.50;90.40;;;;;;6268497;22;20404;-84
2022/09/29 07:50:45;;;;;;;5.93;5.03;;;27.30;86.80;;;;;;6266061;22;20503;-86
2022/09/29 07:53:13;;;;;;;5.30;4.40;;;27.90;83.90;;;;;;6259815;23;20400;-86
2022/09/29 07:55:41;;;;;;;4.80;4.03;;;28.20;81.70;;;;;;6228844;23;20374;-86
2022/09/29 07:58:11;;;;;;;5.90;4.50;;;28.80;74.40;;;;;;6254726;23;20393;-84
2022/09/29 08:00:42;;;;;;;3.53;3.30;;;29.20;74.50;;;;;;6255585;23;20385;-84
2022/09/29 08:03:11;;;;;;;5.90;3.37;;;28.00;70.30;;;;;;6255204;23;20378;-85
2022/09/29 08:05:48;;;;;;;5.13;4.73;;;28.80;71.30;;;;;;6255020;23;20369;-85
2022/09/29 08:08:15;;;;;;;3.90;3.60;;;29.50;69.40;;;;;;6230253;23;20483;-83
2022/09/29 08:10:45;;;;;;;7.60;4.60;;;29.30;71.60;;;;;;6254889;23;20420;-84
2022/09/29 08:13:19;;;;;;;5.93;3.83;;;29.10;70.90;;;;;;6256116;23;20458;-86
2022/09/29 08:15:48;;;;;;;3.50;3.20;;;29.70;67.10;;;;;;6254568;23;20400;-84
2022/09/29 08:18:15;;;;;;;5.03;3.70;;;28.40;67.40;;;;;;6254929;23;20623;-85
2022/09/29 08:20:46;;;;;;;4.53;3.67;;;28.70;69.70;;;;;;6256196;23;20663;-85
2022/09/29 08:23:30;;;;;;;4.80;3.47;;;29.00;66.10;;;;;;6254549;23;20525;-84
2022/09/29 08:26:09;;;;;;;3.83;3.53;;;28.90;64.80;;;;;;6253410;23;20462;-85
2022/09/29 08:28:41;;;;;;;3.20;2.90;;;29.00;66.80;;;;;;6229822;23;20751;-86
2022/09/29 08:31:11;;;;;;;3.37;3.07;;;28.90;64.20;;;;;;6257728;23;20432;-84
2022/09/29 08:33:38;;;;;;;3.57;3.27;;;28.60;63.40;;;;;;6267366;22;20416;-84
2022/09/29 08:36:13;;;;;;;3.13;2.33;;;27.70;66.80;;;;;;6272752;22;20379;-84
2022/09/29 08:38:42;;;;;;;2.50;2.30;;;27.30;69.30;;;;;;6270126;22;20404;-83
2022/09/29 08:41:38;;;;;;;2.57;2.37;;;27.50;64.70;;;;;;6272465;22;20450;-85
2022/09/29 08:44:34;;;;;;;2.70;2.40;;;28.00;65.20;;;;;;6259931;23;20372;-84
2022/09/29 08:47:28;;;;;;;3.70;2.40;;;28.50;62.20;;;;;;6258830;23;20387;-85
2022/09/29 08:50:34;;;;;;;2.40;2.20;;;27.60;66.40;;;;;;6259675;22;20438;-85
2022/09/29 08:53:09;;;;;;;2.50;2.30;;;27.00;67.80;;;;;;6260076;23;20354;-82
2022/09/29 08:56:16;;;;;;;2.43;2.23;;;27.40;67.50;;;;;;6270755;22;20391;-84
2022/09/29 08:58:44;;;;;;;2.70;2.50;;;28.10;64.80;;;;;;6272769;22;20418;-86
2022/09/29 09:01:47;;;;;;;2.93;2.60;;;27.80;66.50;;;;;;6270449;22;20403;-85
2022/09/29 09:04:38;;;;;;;4.50;3.30;;;27.30;65.00;;;;;;6256783;23;20371;-86
2022/09/29 09:07:50;;;;;;;3.63;3.33;;;27.40;67.50;;;;;;6254637;23;20383;-83
2022/09/29 09:10:46;;;;;;;3.30;2.70;;;26.50;68.80;;;;;;6226890;23;20588;-85
2022/09/29 09:13:47;;;;;;;3.57;2.67;;;26.70;67.90;;;;;;6253352;23;20826;-88
2022/09/29 09:16:52;;;;;;;3.60;2.80;;;25.10;68.60;;;;;;6253312;23;20366;-86
2022/09/29 09:19:28;;;;;;;3.67;3.37;;;21.40;88.40;;;;;;6227843;23;20403;-83
2022/09/29 09:22:23;;;;;;;2.53;2.33;;;20.40;93.40;;;;;;6252959;23;20436;-84
2022/09/29 09:25:22;;;;;;;2.90;2.57;;;19.80;96.10;;;;;;6253994;23;20439;-84
2022/09/29 09:28:25;;;;;;;8.50;2.57;;;19.80;97.40;;;;;;6253673;23;20391;-84
2022/09/29 09:31:22;;;;;;;3.13;1.73;;;19.60;94.10;;;;;;6222949;23;20475;-83
2022/09/29 09:34:11;;;;;;;1.87;1.77;;;19.00;98.00;;;;;;6227302;23;20359;-85
2022/09/29 09:36:49;;;;;;;2.27;2.03;;;18.30;99.70;;;;;;6254052;23;20373;-84
2022/09/29 09:39:35;;;;;;;2.73;2.53;;;18.10;99.90;;;;;;6252619;23;20397;-87
2022/09/29 09:42:12;;;;;;;3.53;2.30;;;18.00;99.90;;;;;;6253667;23;20407;-87
2022/09/29 09:44:43;;;;;;;2.40;1.97;;;17.50;99.90;;;;;;6229144;23;20450;-86
2022/09/29 09:47:21;;;;;;;3.03;2.40;;;17.50;99.90;;;;;;6259530;23;20389;-84
2022/09/29 09:49:53;;;;;;;3.27;2.50;;;17.50;99.90;;;;;;6249295;23;20416;-85
2022/09/29 09:52:28;;;;;;;3.20;2.40;;;17.50;99.90;;;;;;6256702;23;20448;-87
2022/09/29 09:55:03;;;;;;;2.83;1.80;;;17.50;99.90;;;;;;6253959;23;20442;-86
2022/09/29 09:57:59;;;;;;;2.37;2.17;;;17.40;99.90;;;;;;6254309;23;20379;-86
2022/09/29 10:00:43;;;;;;;5.80;2.40;;;17.50;99.90;;;;;;6253059;22;20435;-85
2022/09/29 10:03:13;;;;;;;1.90;1.80;;;17.30;99.90;;;;;;6252776;23;20441;-84
2022/09/29 10:05:44;;;;;;;2.83;2.03;;;17.10;99.90;;;;;;6252643;22;20481;-84
2022/09/29 10:08:26;;;;;;;2.73;1.87;;;16.90;99.90;;;;;;6251021;23;20374;-83
2022/09/29 10:10:55;;;;;;;1.70;1.60;;;17.20;99.90;;;;;;6251621;22;20432;-84
2022/09/29 10:13:30;;;;;;;2.03;1.80;;;17.50;99.90;;;;;;6252486;23;20484;-87
2022/09/29 10:16:11;;;;;;;1.90;1.80;;;17.40;99.90;;;;;;6254081;22;20400;-84
2022/09/29 10:18:40;;;;;;;2.27;2.17;;;18.00;99.90;;;;;;6251134;23;20468;-85
2022/09/29 10:21:31;;;;;;;2.30;2.10;;;18.50;99.90;;;;;;6251918;22;20397;-84
2022/09/29 10:24:00;;;;;;;2.00;1.80;;;17.70;99.90;;;;;;6253426;22;20380;-83
2022/09/29 10:26:39;;;;;;;3.50;2.50;;;17.10;99.90;;;;;;6254499;22;20744;-84
2022/09/29 10:29:30;;;;;;;2.57;2.37;;;16.40;99.90;;;;;;6252363;22;20780;-85
2022/09/29 10:32:04;;;;;;;2.70;2.00;;;16.40;99.90;;;;;;6252913;22;20386;-84
2022/09/29 10:34:35;;;;;;;2.60;2.30;;;16.60;99.90;;;;;;6261980;22;20396;-84
2022/09/29 10:37:24;;;;;;;4.20;1.93;;;16.70;99.90;;;;;;6256075;22;20396;-84
2022/09/29 10:40:12;;;;;;;2.40;2.20;;;16.60;99.90;;;;;;6252524;23;20377;-84
2022/09/29 10:42:49;;;;;;;3.63;2.40;;;16.70;99.90;;;;;;6254585;22;20410;-86
2022/09/29 10:45:20;;;;;;;1.97;1.77;;;17.00;99.90;;;;;;6253974;23;20384;-85
2022/09/29 10:47:56;;;;;;;4.00;2.50;;;17.10;99.90;;;;;;6254843;23;20377;-84
2022/09/29 10:50:29;;;;;;;1.53;1.43;;;17.20;99.90;;;;;;6253333;22;20388;-83
2022/09/29 10:53:41;;;;;;;2.17;1.90;;;16.80;99.90;;;;;;6253185;22;20752;-86
2022/09/29 10:56:21;;;;;;;2.17;1.97;;;16.90;99.90;;;;;;6257891;23;20389;-86
2022/09/29 10:58:54;;;;;;;2.53;2.33;;;17.10;99.90;;;;;;6255003;22;20405;-85
2022/09/29 11:01:34;;;;;;;2.30;2.10;;;17.60;99.90;;;;;;6255500;23;20386;-85
2022/09/29 11:04:05;;;;;;;2.20;1.80;;;17.90;99.90;;;;;;6255217;23;20418;-82
2022/09/29 11:06:37;;;;;;;3.10;2.00;;;18.00;99.90;;;;;;6256672;22;20387;-85
2022/09/29 11:09:12;;;;;;;2.30;2.00;;;17.50;99.90;;;;;;6255279;22;20367;-85
2022/09/29 11:11:56;;;;;;;2.67;2.30;;;17.30;99.90;;;;;;6255707;23;20405;-83
2022/09/29 11:14:35;;;;;;;2.10;1.90;;;17.30;99.90;;;;;;6256850;22;20397;-85
2022/09/29 11:17:21;;;;;;;2.83;1.70;;;17.20;99.90;;;;;;6255386;23;20389;-87
2022/09/29 11:19:52;;;;;;;3.53;2.47;;;17.40;99.90;;;;;;6258437;22;20416;-85
2022/09/29 11:22:38;;;;;;;2.67;2.47;;;17.00;99.90;;;;;;6255027;22;20408;-85
2022/09/29 11:25:25;;;;;;;2.30;2.03;;;16.70;99.90;;;;;;6257673;22;20376;-85
2022/09/29 11:28:05;;;;;;;2.70;2.50;;;16.70;99.90;;;;;;6257316;22;20381;-85
2022/09/29 11:31:08;;;;;;;1.53;1.40;;;17.30;99.90;;;;;;6255677;23;20702;-88
2022/09/29 11:33:51;;;;;;;2.80;2.43;;;17.90;99.90;;;;;;6256824;22;20415;-85
2022/09/29 11:36:53;;;;;;;3.30;1.80;;;18.30;99.90;;;;;;6259331;22;20367;-85
2022/09/29 11:39:48;;;;;;;2.03;1.93;;;18.60;99.90;;;;;;6260079;23;20419;-85
2022/09/29 11:42:33;;;;;;;2.10;1.57;;;18.40;99.90;;;;;;6265390;22;20704;-86
2022/09/29 11:45:06;;;;;;;6.30;1.77;;;18.60;99.90;;;;;;6265514;23;20389;-84
2022/09/29 11:48:24;;;;;;;2.90;1.77;;;18.40;99.90;;;;;;6260216;22;20385;-84
2022/09/29 11:51:27;;;;;;;4.03;3.73;;;18.50;99.90;;;;;;6257090;23;20461;-86
2022/09/29 11:54:32;;;;;;;3.60;2.00;;;18.60;99.90;;;;;;6229309;23;20359;-86
2022/09/29 11:57:46;;;;;;;2.93;2.20;;;18.30;99.90;;;;;;6255738;23;20461;-86
2022/09/29 12:00:19;;;;;;;2.60;2.40;;;18.00;99.90;;;;;;6087344;23;20404;-86
2022/09/29 12:03:08;;;;;;;3.53;2.70;;;18.20;99.90;;;;;;6117028;23;20381;-86
2022/09/29 12:06:00;;;;;;;2.10;1.90;;;18.00;99.90;;;;;;6219217;23;20501;-87
2022/09/29 12:08:41;;;;;;;2.00;1.60;;;18.30;99.90;;;;;;6258089;23;20400;-86
2022/09/29 12:11:47;;;;;;;1.77;1.63;;;18.00;99.90;;;;;;6264227;22;20422;-87
2022/09/29 12:15:03;;;;;;;1.40;1.30;;;17.50;99.90;;;;;;6269903;22;20415;-87
2022/09/29 12:17:37;;;;;;;3.63;1.93;;;17.20;99.90;;;;;;6201952;23;20416;-86
2022/09/29 12:20:36;;;;;;;2.37;1.90;;;16.90;99.90;;;;;;6258681;23;20380;-87
2022/09/29 12:23:09;;;;;;;21.13;3.47;;;16.70;99.90;;;;;;6256746;23;20568;-87
2022/09/29 12:25:44;;;;;;;2.20;2.00;;;16.80;99.90;;;;;;6261196;22;20356;-87
2022/09/29 12:28:16;;;;;;;1.70;1.60;;;16.70;99.90;;;;;;6262600;23;20377;-87
2022/09/29 12:30:50;;;;;;;2.50;1.83;;;16.90;99.90;;;;;;6260474;23;20380;-86
2022/09/29 12:33:32;;;;;;;1.70;1.60;;;16.80;99.90;;;;;;6257464;23;20416;-87
2022/09/29 12:36:43;;;;;;;1.97;1.87;;;16.80;99.90;;;;;;6265546;22;20380;-85
2022/09/29 12:39:22;;;;;;;1.40;1.30;;;16.80;99.90;;;;;;6261442;22;20627;-85
2022/09/29 12:42:10;;;;;;;1.30;1.20;;;16.40;99.90;;;;;;6256045;23;20376;-85
2022/09/29 12:44:49;;;;;;;1.67;1.57;;;16.40;99.90;;;;;;6260824;22;20381;-88
2022/09/29 12:47:48;;;;;;;2.63;1.53;;;16.70;99.90;;;;;;6232116;23;20361;-87
2022/09/29 12:50:53;;;;;;;2.13;1.97;;;17.10;99.90;;;;;;6269227;22;20400;-85
2022/09/29 12:53:24;;;;;;;1.77;1.67;;;17.30;99.90;;;;;;6227997;23;20444;-84
2022/09/29 12:56:20;;;;;;;1.47;1.30;;;17.20;99.90;;;;;;6238291;23;20392;-91
2022/09/29 12:59:03;;;;;;;1.73;1.43;;;16.70;99.90;;;;;;6264421;22;20506;-85
2022/09/29 13:01:35;;;;;;;2.10;1.80;;;16.50;99.90;;;;;;6265044;22;20445;-87
2022/09/29 13:04:49;;;;;;;1.50;1.40;;;16.50;99.90;;;;;;6271507;22;20370;-87
2022/09/29 13:10:26;;;;;;;1.40;1.30;;;16.60;99.90;;;;;;6272789;22;20406;-85
2022/09/29 13:13:31;;;;;;;1.70;1.60;;;16.60;99.90;;;;;;6239590;23;20470;-87
2022/09/29 13:16:26;;;;;;;1.70;1.40;;;16.60;99.90;;;;;;6260145;22;20519;-88
2022/09/29 13:19:05;;;;;;;2.03;1.83;;;16.50;99.90;;;;;;6258596;23;20436;-88
2022/09/29 13:22:40;;;;;;;4.33;2.10;;;16.60;99.90;;;;;;6259562;23;20421;-87
2022/09/29 13:25:36;;;;;;;1.47;1.37;;;16.90;99.90;;;;;;6233600;23;20404;-87
2022/09/29 13:28:40;;;;;;;2.33;1.97;;;17.10;99.90;;;;;;6255449;23;20376;-87
2022/09/29 13:31:13;;;;;;;1.60;1.43;;;17.20;99.90;;;;;;6255308;23;20764;-87
2022/09/29 13:33:49;;;;;;;1.93;1.50;;;17.20;99.90;;;;;;6254466;23;20438;-88
2022/09/29 13:36:36;;;;;;;1.97;1.83;;;17.30;99.90;;;;;;6253678;23;20408;-85
2022/09/29 13:39:30;;;;;;;3.33;2.37;;;17.60;99.90;;;;;;6256546;23;20405;-90
2022/09/29 13:42:24;;;;;;;2.37;1.27;;;17.60;99.90;;;;;;6225902;23;20430;-87